Time;durP1;ratioP1;P1;durP2;ratioP2;P2;SDS_P1;SDS_P2;PMS_P1;PMS_P2;Temp;Humidity;BMP_temperature;BMP_pressure;BME280_temperature;BME280_humidity;BME280_pressure;Samples;Min_cycle;Max_cycle;Signal;HPM_P1;HPM_P2
2024/01/23 00:00:21;;;;;;;12.40;7.90;;;;;;;-0.18;100.00;99553.31;5033340;28;20036;-71
2024/01/23 00:02:47;;;;;;;7.80;7.00;;;;;;;-0.09;100.00;99572.66;5050148;28;20064;-71
2024/01/23 00:05:16;;;;;;;10.43;7.53;;;;;;;-0.11;100.00;99569.34;5051160;28;20080;-69
2024/01/23 00:07:41;;;;;;;12.15;7.93;;;;;;;-0.41;100.00;99518.53;5044314;28;20064;-71
2024/01/23 00:10:07;;;;;;;9.13;7.23;;;;;;;-0.05;100.00;99568.84;5036309;28;20049;-70
2024/01/23 00:12:33;;;;;;;7.90;6.77;;;;;;;-0.07;100.00;99568.13;5046196;28;20040;-70
2024/01/23 00:14:58;;;;;;;10.50;7.37;;;;;;;-0.16;100.00;99551.41;5046925;28;20268;-70
2024/01/23 00:17:25;;;;;;;13.00;8.53;;;;;;;-0.10;100.00;99543.06;5031075;28;20517;-71
2024/01/23 00:19:50;;;;;;;10.60;7.67;;;;;;;-0.20;100.00;99533.47;5033168;28;20131;-70
2024/01/23 00:22:16;;;;;;;11.20;7.90;;;;;;;-0.18;100.00;99565.56;5050951;28;20402;-70
2024/01/23 00:24:41;;;;;;;11.30;8.90;;;;;;;-0.21;100.00;99552.72;5050839;28;20476;-69
2024/01/23 00:27:08;;;;;;;9.97;8.40;;;;;;;-0.12;100.00;99570.31;5053020;28;20048;-70
2024/01/23 00:29:34;;;;;;;11.77;8.13;;;;;;;-0.35;100.00;99540.75;5054578;28;20043;-70
2024/01/23 00:32:03;;;;;;;11.43;8.50;;;;;;;-0.48;100.00;99517.38;5053222;28;20260;-69
2024/01/23 00:34:29;;;;;;;10.47;8.37;;;;;;;-0.22;100.00;99572.84;5054488;28;20761;-72
2024/01/23 00:36:54;;;;;;;12.03;9.10;;;;;;;-0.13;100.00;99587.78;5046475;28;20325;-71
2024/01/23 00:39:20;;;;;;;11.93;8.07;;;;;;;-0.21;100.00;99563.19;5048505;28;20119;-69
2024/01/23 00:41:45;;;;;;;11.87;8.17;;;;;;;-0.10;100.00;99577.06;5045374;28;20125;-70
2024/01/23 00:44:11;;;;;;;9.00;7.57;;;;;;;-0.06;100.00;99580.28;5034060;28;20041;-70
2024/01/23 00:46:37;;;;;;;10.87;8.33;;;;;;;-0.01;100.00;99567.63;5040560;28;20124;-68
2024/01/23 00:49:02;;;;;;;11.67;8.73;;;;;;;-0.13;100.00;99547.72;5054303;28;20040;-70
2024/01/23 00:51:29;;;;;;;10.20;8.37;;;;;;;0.03;100.00;99582.16;5053951;28;20041;-71
2024/01/23 00:53:54;;;;;;;10.70;8.53;;;;;;;0.00;100.00;99566.72;5054210;28;20092;-69
2024/01/23 00:56:20;;;;;;;9.23;7.53;;;;;;;0.04;100.00;99581.22;5054415;28;20358;-71
2024/01/23 00:58:45;;;;;;;10.07;7.70;;;;;;;-0.74;100.00;99455.88;5054032;28;20048;-68
2024/01/23 01:01:11;;;;;;;11.70;8.33;;;;;;;0.03;100.00;99576.94;5054207;28;20040;-69
2024/01/23 01:03:37;;;;;;;9.47;7.70;;;;;;;0.08;100.00;99572.16;5055147;28;20032;-71
2024/01/23 01:06:03;;;;;;;11.37;7.67;;;;;;;0.04;100.00;99562.06;5055118;28;20263;-70
2024/01/23 01:08:29;;;;;;;10.17;8.13;;;;;;;0.08;100.00;99577.38;5054077;28;20140;-68
2024/01/23 01:10:54;;;;;;;8.87;7.80;;;;;;;0.07;100.00;99572.28;5046893;28;20474;-68
2024/01/23 01:13:20;;;;;;;9.10;7.73;;;;;;;-0.09;100.00;99542.09;5036203;28;20049;-68
2024/01/23 01:15:46;;;;;;;11.67;7.97;;;;;;;0.08;100.00;99555.59;5053700;28;20032;-68
2024/01/23 01:18:11;;;;;;;10.17;7.93;;;;;;;-0.07;100.00;99532.31;5047771;28;20172;-70
2024/01/23 01:20:40;;;;;;;10.20;8.50;;;;;;;-0.01;100.00;99550.13;5042927;28;20049;-70
2024/01/23 01:23:05;;;;;;;10.87;7.37;;;;;;;0.04;100.00;99572.53;5053107;28;20731;-69
2024/01/23 01:25:31;;;;;;;9.17;7.37;;;;;;;-0.27;100.00;99546.22;5044643;28;20303;-69
2024/01/23 01:27:59;;;;;;;12.90;9.43;;;;;;;-0.12;100.00;99557.22;5033180;28;20524;-69
2024/01/23 01:30:28;;;;;;;17.15;11.07;;;;;;;-0.09;100.00;99568.25;5034376;28;20030;-69
2024/01/23 01:32:56;;;;;;;16.00;11.45;;;;;;;-0.15;100.00;99565.31;5051384;28;20407;-68
2024/01/23 01:35:22;;;;;;;13.43;11.75;;;;;;;0.01;100.00;99584.06;5044196;28;20052;-70
2024/01/23 01:37:47;;;;;;;12.77;11.37;;;;;;;0.01;100.00;99589.31;5035648;28;20378;-70
2024/01/23 01:40:15;;;;;;;15.40;11.97;;;;;;;-0.22;100.00;99538.00;5053291;28;20459;-70
2024/01/23 01:42:42;;;;;;;15.63;11.80;;;;;;;-0.23;100.00;99550.25;5049682;28;20656;-70
2024/01/23 01:45:10;;;;;;;10.53;8.70;;;;;;;-0.07;100.00;99570.75;5040821;28;20583;-69
2024/01/23 01:47:38;;;;;;;10.90;9.70;;;;;;;0.05;100.00;99589.88;5043438;28;20294;-68
2024/01/23 01:50:05;;;;;;;11.60;8.97;;;;;;;0.15;100.00;99589.00;5033042;28;20279;-70
2024/01/23 01:52:32;;;;;;;11.70;8.67;;;;;;;0.13;100.00;99587.47;5032528;28;20274;-68
2024/01/23 01:54:59;;;;;;;10.50;7.90;;;;;;;0.07;100.00;99570.47;5032938;28;20260;-68
2024/01/23 01:57:27;;;;;;;9.57;7.10;;;;;;;0.17;100.00;99574.00;5032696;28;20712;-69
2024/01/23 01:59:53;;;;;;;9.75;7.78;;;;;;;0.24;100.00;99585.63;5032808;28;20272;-72
2024/01/23 02:02:20;;;;;;;10.27;7.23;;;;;;;0.26;100.00;99598.59;5033122;28;20030;-70
2024/01/23 02:04:45;;;;;;;11.87;7.20;;;;;;;0.08;100.00;99569.53;5033287;28;20061;-68
2024/01/23 02:07:11;;;;;;;8.57;7.23;;;;;;;0.22;100.00;99597.19;5039521;28;20378;-69
2024/01/23 02:09:37;;;;;;;8.83;7.20;;;;;;;0.13;100.00;99580.44;5032675;28;20179;-69
2024/01/23 02:12:05;;;;;;;9.43;8.13;;;;;;;-0.07;100.00;99557.66;5043493;28;20263;-68
2024/01/23 02:14:31;;;;;;;8.03;6.70;;;;;;;0.03;100.00;99578.72;5032707;28;20049;-69
2024/01/23 02:16:58;;;;;;;8.97;7.40;;;;;;;-0.05;100.00;99563.59;5032393;28;20327;-70
2024/01/23 02:19:44;;;;;;;8.97;7.30;;;;;;;0.17;100.00;99597.56;5018120;28;20049;-68
2024/01/23 02:22:09;;;;;;;9.80;7.97;;;;;;;0.10;100.00;99585.94;5048734;28;20317;-68
2024/01/23 02:24:35;;;;;;;10.03;7.40;;;;;;;0.19;100.00;99608.75;5052469;28;20388;-70
2024/01/23 02:27:00;;;;;;;9.00;7.20;;;;;;;0.20;100.00;99599.09;5052634;28;20408;-69
2024/01/23 02:29:26;;;;;;;7.70;6.63;;;;;;;0.24;100.00;99611.81;5051586;28;20095;-69
2024/01/23 02:31:51;;;;;;;8.27;6.40;;;;;;;0.10;100.00;99601.66;5052241;28;20492;-71
2024/01/23 02:34:17;;;;;;;7.90;6.20;;;;;;;-0.14;100.00;99570.44;5051896;28;20033;-68
2024/01/23 02:36:43;;;;;;;7.90;6.27;;;;;;;0.23;100.00;99631.09;5051103;28;20036;-70
2024/01/23 02:39:09;;;;;;;8.80;6.57;;;;;;;0.12;100.00;99576.16;5052110;28;20028;-70
2024/01/23 02:41:35;;;;;;;9.93;6.27;;;;;;;0.11;100.00;99573.69;5050800;28;20279;-70
2024/01/23 02:44:00;;;;;;;7.50;6.17;;;;;;;0.20;100.00;99594.69;5050913;28;20115;-69
2024/01/23 02:46:25;;;;;;;10.10;7.70;;;;;;;0.19;100.00;99600.06;5051879;28;20124;-68
2024/01/23 02:48:51;;;;;;;7.70;5.83;;;;;;;0.20;100.00;99599.94;5050285;28;20045;-69
2024/01/23 02:51:20;;;;;;;6.27;5.67;;;;;;;0.28;100.00;99617.63;5052142;28;20124;-68
2024/01/23 02:53:46;;;;;;;10.43;6.15;;;;;;;0.20;100.00;99606.94;5052164;28;20041;-69
2024/01/23 02:56:12;;;;;;;7.83;6.17;;;;;;;0.11;100.00;99587.59;5052026;28;20041;-70
2024/01/23 02:58:39;;;;;;;8.90;6.00;;;;;;;0.30;100.00;99616.56;5051851;28;20275;-69
2024/01/23 03:01:05;;;;;;;7.70;6.70;;;;;;;0.13;100.00;99585.69;5051782;28;20500;-68
2024/01/23 03:03:30;;;;;;;6.77;5.77;;;;;;;0.33;100.00;99612.03;5045889;28;20290;-70
2024/01/23 03:05:56;;;;;;;7.63;5.97;;;;;;;0.04;100.00;99562.88;5030723;28;20041;-69
2024/01/23 03:08:23;;;;;;;9.17;6.40;;;;;;;0.23;100.00;99604.91;5031824;28;20439;-70
2024/01/23 03:10:49;;;;;;;12.37;6.43;;;;;;;-0.46;100.00;99485.84;5051513;28;20056;-69
2024/01/23 03:13:15;;;;;;;6.70;5.77;;;;;;;0.15;100.00;99591.63;5051589;28;20326;-71
2024/01/23 03:15:41;;;;;;;8.10;6.53;;;;;;;0.23;100.00;99604.91;5033563;28;20708;-69
2024/01/23 03:18:10;;;;;;;5.50;5.00;;;;;;;0.33;100.00;99615.50;5029896;28;20087;-68
2024/01/23 03:20:35;;;;;;;7.13;5.50;;;;;;;0.27;100.00;99595.00;5031475;28;20309;-69
2024/01/23 03:23:01;;;;;;;7.00;5.90;;;;;;;0.35;100.00;99613.56;5030827;28;20033;-69
2024/01/23 03:25:26;;;;;;;8.67;5.80;;;;;;;0.36;100.00;99611.78;5031539;28;20034;-70
2024/01/23 03:27:52;;;;;;;6.47;5.53;;;;;;;0.39;100.00;99619.38;5030613;28;20041;-69
2024/01/23 03:30:28;;;;;;;6.87;6.17;;;;;;;0.47;100.00;99622.19;5031706;28;20132;-70
2024/01/23 03:32:55;;;;;;;6.60;5.43;;;;;;;0.46;100.00;99615.31;5031484;28;20037;-70
2024/01/23 03:35:20;;;;;;;8.17;5.90;;;;;;;0.49;100.00;99615.88;5031580;28;20609;-69
2024/01/23 03:37:46;;;;;;;7.63;6.37;;;;;;;0.40;100.00;99613.19;5032530;28;20260;-70
2024/01/23 03:40:12;;;;;;;7.13;5.93;;;;;;;0.35;100.00;99592.63;5031842;28;20100;-70
2024/01/23 03:42:37;;;;;;;8.10;5.90;;;;;;;0.48;100.00;99614.22;5031458;28;20548;-69
2024/01/23 03:45:03;;;;;;;10.27;6.13;;;;;;;0.35;100.00;99587.38;5030131;28;20080;-70
2024/01/23 03:47:30;;;;;;;8.87;6.10;;;;;;;0.47;100.00;99601.25;5031118;28;20119;-70
2024/01/23 03:49:55;;;;;;;6.50;5.03;;;;;;;0.35;100.00;99586.56;5031369;28;20291;-69
2024/01/23 03:52:22;;;;;;;6.03;5.43;;;;;;;0.58;100.00;99627.41;5031705;28;20045;-70
2024/01/23 03:54:48;;;;;;;8.67;5.87;;;;;;;0.26;100.00;99583.72;5031495;28;20052;-68
2024/01/23 03:57:14;;;;;;;10.47;6.30;;;;;;;0.50;100.00;99632.44;5031267;28;20351;-69
2024/01/23 03:59:43;;;;;;;9.63;6.33;;;;;;;0.37;100.00;99621.31;5030955;28;20660;-70
2024/01/23 04:02:09;;;;;;;10.70;5.93;;;;;;;0.48;100.00;99631.72;5034237;28;20041;-68
2024/01/23 04:04:34;;;;;;;8.30;7.37;;;;;;;0.49;100.00;99636.00;5035944;28;20260;-68
2024/01/23 04:07:00;;;;;;;10.27;6.90;;;;;;;0.48;100.00;99627.31;5035723;28;20043;-68
2024/01/23 04:09:27;;;;;;;7.33;5.50;;;;;;;0.54;100.00;99639.06;5037064;28;20045;-69
2024/01/23 04:11:52;;;;;;;10.57;6.20;;;;;;;0.57;100.00;99644.88;5042268;28;20036;-72
2024/01/23 04:14:18;;;;;;;10.43;6.67;;;;;;;0.58;100.00;99649.19;5037761;28;20635;-69
2024/01/23 04:16:43;;;;;;;8.80;7.00;;;;;;;0.62;100.00;99647.16;5043027;28;20041;-71
2024/01/23 04:19:10;;;;;;;10.37;6.70;;;;;;;0.64;100.00;99653.09;5046668;28;20562;-69
2024/01/23 04:21:35;;;;;;;11.77;7.63;;;;;;;0.57;100.00;99649.28;5053637;28;20040;-72
2024/01/23 04:24:01;;;;;;;9.07;6.93;;;;;;;0.25;100.00;99596.94;5054603;28;20263;-70
2024/01/23 04:26:27;;;;;;;10.77;7.50;;;;;;;0.55;100.00;99643.34;5038665;28;20504;-72
2024/01/23 04:28:52;;;;;;;12.27;6.63;;;;;;;0.58;100.00;99640.50;5044719;28;20280;-69
2024/01/23 04:31:18;;;;;;;11.40;7.17;;;;;;;0.58;100.00;99636.09;5054179;28;20041;-71
2024/01/23 04:33:46;;;;;;;13.07;8.90;;;;;;;0.64;100.00;99658.34;5039880;28;20064;-71
2024/01/23 04:36:12;;;;;;;18.08;7.32;;;;;;;0.65;100.00;99641.66;5044309;28;20041;-73
2024/01/23 04:38:38;;;;;;;10.27;6.93;;;;;;;0.77;100.00;99655.53;5040436;28;20048;-76
2024/01/23 04:41:04;;;;;;;10.97;7.70;;;;;;;0.64;100.00;99619.03;5036728;28;20271;-73
2024/01/23 04:43:30;;;;;;;12.67;8.33;;;;;;;0.82;100.00;99654.19;5037514;28;20033;-72
2024/01/23 04:45:56;;;;;;;9.53;6.50;;;;;;;0.83;100.00;99655.84;5034282;28;20049;-69
2024/01/23 04:48:22;;;;;;;11.97;6.80;;;;;;;0.81;100.00;99668.25;5054220;28;20092;-67
2024/01/23 04:50:48;;;;;;;14.20;9.10;;;;;;;0.80;100.00;99665.75;5046515;28;20363;-66
2024/01/23 04:53:13;;;;;;;12.27;8.50;;;;;;;0.45;100.00;99605.78;5045016;28;20033;-69
2024/01/23 04:55:38;;;;;;;18.13;10.60;;;;;;;0.66;100.00;99624.16;5034961;28;20033;-71
2024/01/23 04:58:06;;;;;;;15.63;8.57;;;;;;;0.75;100.00;99639.94;5037909;28;20049;-71
2024/01/23 05:00:31;;;;;;;12.97;8.57;;;;;;;0.74;100.00;99648.75;5039847;28;20080;-70
2024/01/23 05:02:57;;;;;;;13.47;8.23;;;;;;;0.79;100.00;99654.44;5039355;28;20366;-72
2024/01/23 05:05:23;;;;;;;13.87;8.50;;;;;;;0.76;100.00;99659.94;5039662;28;20060;-69
2024/01/23 05:07:48;;;;;;;15.27;8.40;;;;;;;0.43;100.00;99605.91;5043332;28;20420;-70
2024/01/23 05:10:14;;;;;;;14.23;8.33;;;;;;;0.72;100.00;99647.22;5046298;28;20029;-72
2024/01/23 05:12:39;;;;;;;19.37;8.50;;;;;;;0.81;100.00;99664.78;5042288;28;20480;-69
2024/01/23 05:15:05;;;;;;;14.63;8.97;;;;;;;0.78;100.00;99657.19;5046563;28;20128;-70
2024/01/23 05:17:31;;;;;;;15.50;8.37;;;;;;;0.75;100.00;99653.03;5039477;28;20122;-72
2024/01/23 05:20:00;;;;;;;16.27;8.43;;;;;;;0.74;100.00;99656.63;5042447;28;20042;-69
2024/01/23 05:22:26;;;;;;;14.73;8.15;;;;;;;0.50;100.00;99612.31;5044251;28;20276;-73
2024/01/23 05:24:52;;;;;;;14.10;8.80;;;;;;;0.76;100.00;99646.84;5049581;28;20079;-69
2024/01/23 05:27:18;;;;;;;12.80;8.57;;;;;;;0.89;100.00;99673.69;5049404;28;20052;-68
2024/01/23 05:29:43;;;;;;;13.07;9.00;;;;;;;0.81;100.00;99656.94;5051733;28;20286;-71
2024/01/23 05:32:09;;;;;;;17.10;8.77;;;;;;;0.81;100.00;99662.16;5042463;28;20099;-70
2024/01/23 05:34:35;;;;;;;14.83;8.80;;;;;;;0.91;100.00;99663.91;5045383;28;20139;-70
2024/01/23 05:37:00;;;;;;;15.00;9.63;;;;;;;0.83;100.00;99655.84;5050012;28;20408;-71
2024/01/23 05:39:29;;;;;;;13.53;9.20;;;;;;;0.94;100.00;99657.59;5048914;28;20120;-70
2024/01/23 05:41:54;;;;;;;18.30;10.43;;;;;;;0.61;100.00;99614.06;5043723;28;20500;-73
2024/01/23 05:44:21;;;;;;;13.80;9.00;;;;;;;0.91;100.00;99668.31;5039263;28;20080;-72
2024/01/23 05:46:47;;;;;;;19.73;10.43;;;;;;;0.81;100.00;99657.75;5040481;28;20144;-72
2024/01/23 05:49:12;;;;;;;14.43;10.43;;;;;;;0.77;100.00;99645.88;5046295;28;20833;-72
2024/01/23 05:51:38;;;;;;;19.57;10.43;;;;;;;0.87;100.00;99662.50;5043200;28;20105;-67
2024/01/23 05:54:03;;;;;;;12.93;8.27;;;;;;;0.77;100.00;99650.28;5050479;28;20496;-71
2024/01/23 05:56:29;;;;;;;15.37;9.53;;;;;;;0.48;100.00;99597.66;5050547;28;20068;-70
2024/01/23 05:58:55;;;;;;;21.43;11.50;;;;;;;0.81;100.00;99651.69;5051120;28;20037;-71
2024/01/23 06:01:21;;;;;;;16.00;10.63;;;;;;;0.97;100.00;99672.22;5046128;28;20083;-72
2024/01/23 06:03:47;;;;;;;21.00;10.13;;;;;;;0.97;100.00;99661.75;5051560;28;20033;-71
2024/01/23 06:06:14;;;;;;;16.87;10.10;;;;;;;0.97;100.00;99656.50;5051660;28;20263;-71
2024/01/23 06:08:40;;;;;;;14.60;9.53;;;;;;;0.93;100.00;99656.75;5060125;28;20028;-70
2024/01/23 06:11:05;;;;;;;17.00;10.10;;;;;;;0.86;100.00;99639.84;5066209;28;20295;-69
2024/01/23 06:13:31;;;;;;;16.53;9.67;;;;;;;0.81;100.00;99646.44;5053377;28;20043;-69
2024/01/23 06:15:56;;;;;;;22.77;10.33;;;;;;;0.97;100.00;99659.13;5053669;28;20041;-70
2024/01/23 06:18:23;;;;;;;16.23;9.87;;;;;;;0.88;100.00;99648.44;5057647;28;20469;-71
2024/01/23 06:20:49;;;;;;;14.47;10.17;;;;;;;0.53;100.00;99588.47;5033405;28;20060;-69
2024/01/23 06:23:14;;;;;;;15.80;9.60;;;;;;;1.02;100.00;99670.03;5046310;28;20866;-70
2024/01/23 06:25:40;;;;;;;18.87;9.43;;;;;;;0.96;100.00;99652.22;5048710;28;20520;-70
2024/01/23 06:28:06;;;;;;;19.13;11.07;;;;;;;0.89;100.00;99634.38;5051245;28;20044;-69
2024/01/23 06:30:31;;;;;;;16.60;10.17;;;;;;;1.00;100.00;99656.22;5052184;28;20416;-70
2024/01/23 06:32:57;;;;;;;15.53;9.73;;;;;;;1.11;100.00;99674.50;5045414;28;20040;-70
2024/01/23 06:35:23;;;;;;;18.87;9.63;;;;;;;1.07;100.00;99675.72;5054598;28;20044;-71
2024/01/23 06:37:48;;;;;;;13.93;10.83;;;;;;;1.07;100.00;99666.06;5029442;28;20123;-71
2024/01/23 06:40:14;;;;;;;13.17;10.43;;;;;;;1.18;100.00;99691.41;5050233;28;20427;-69
2024/01/23 06:42:39;;;;;;;11.60;9.80;;;;;;;1.11;100.00;99679.75;5049227;28;20099;-70
2024/01/23 06:45:05;;;;;;;13.57;9.17;;;;;;;1.11;100.00;99693.69;5047996;28;20051;-69
2024/01/23 06:47:31;;;;;;;15.37;10.33;;;;;;;1.09;100.00;99687.75;5047833;28;20051;-69
2024/01/23 06:49:57;;;;;;;19.83;11.13;;;;;;;1.25;100.00;99705.66;5051514;28;20754;-69
2024/01/23 06:52:22;;;;;;;16.87;10.70;;;;;;;1.29;100.00;99703.63;5043536;28;20113;-72
2024/01/23 06:54:48;;;;;;;16.93;11.03;;;;;;;1.22;100.00;99692.81;5043620;28;20090;-70
2024/01/23 06:57:13;;;;;;;14.47;9.33;;;;;;;1.29;100.00;99709.69;5042917;28;20029;-71
2024/01/23 06:59:39;;;;;;;13.70;9.33;;;;;;;1.16;100.00;99703.81;5049199;28;20037;-69
2024/01/23 07:02:05;;;;;;;18.33;11.13;;;;;;;1.15;100.00;99695.09;5047857;28;20131;-71
2024/01/23 07:04:31;;;;;;;19.97;9.87;;;;;;;1.27;100.00;99716.84;5028321;28;20405;-70
2024/01/23 07:06:56;;;;;;;15.87;10.37;;;;;;;1.20;100.00;99685.06;5045564;28;20294;-68
2024/01/23 07:09:22;;;;;;;16.00;10.93;;;;;;;1.20;100.00;99689.50;5045963;28;20128;-70
2024/01/23 07:11:49;;;;;;;17.13;10.10;;;;;;;1.29;100.00;99707.06;5043708;28;20394;-70
2024/01/23 07:14:15;;;;;;;17.43;10.63;;;;;;;1.34;100.00;99720.63;5047727;28;20037;-69
2024/01/23 07:16:41;;;;;;;18.97;9.43;;;;;;;1.20;100.00;99702.59;5050051;28;20297;-70
2024/01/23 07:19:06;;;;;;;14.60;8.83;;;;;;;1.31;100.00;99715.63;5050768;28;20294;-69
2024/01/23 07:21:32;;;;;;;15.93;9.30;;;;;;;1.26;100.00;99706.50;5047532;28;20135;-70
2024/01/23 07:23:57;;;;;;;15.17;10.23;;;;;;;1.31;100.00;99717.44;5047728;28;20496;-70
2024/01/23 07:26:23;;;;;;;15.97;10.53;;;;;;;1.25;100.00;99708.28;5049766;28;20041;-70
2024/01/23 07:28:48;;;;;;;16.97;10.23;;;;;;;1.29;100.00;99725.44;5048549;28;20051;-70
2024/01/23 07:31:14;;;;;;;16.93;11.27;;;;;;;1.24;100.00;99732.84;5045961;28;20056;-70
2024/01/23 07:33:39;;;;;;;17.20;9.33;;;;;;;1.31;100.00;99735.78;5044023;28;20405;-70
2024/01/23 07:36:05;;;;;;;18.67;9.80;;;;;;;1.32;100.00;99746.16;5049304;28;20033;-69
2024/01/23 07:38:30;;;;;;;16.70;9.90;;;;;;;1.18;100.00;99730.75;5051837;28;20070;-70
2024/01/23 07:40:56;;;;;;;18.53;9.50;;;;;;;1.41;100.00;99776.03;5037143;28;20124;-71
2024/01/23 07:43:25;;;;;;;16.60;9.70;;;;;;;1.37;100.00;99770.19;5053564;28;20508;-72
2024/01/23 07:45:51;;;;;;;;;;;;;;;1.46;100.00;99773.88;5054205;28;20037;-70
2024/01/23 07:48:16;;;;;;;22.07;10.47;;;;;;;1.47;100.00;99773.75;5053248;28;19928;-70
2024/01/23 07:50:42;;;;;;;20.07;10.30;;;;;;;1.39;100.00;99770.91;5043016;28;20044;-74
2024/01/23 07:53:08;;;;;;;15.33;10.00;;;;;;;1.15;100.00;99733.59;5042744;28;20462;-68
2024/01/23 07:55:33;;;;;;;31.20;11.13;;;;;;;1.47;100.00;99801.78;5047548;28;20378;-69
2024/01/23 07:57:59;;;;;;;13.93;8.60;;;;;;;1.51;100.00;99808.44;5037043;28;20413;-70
2024/01/23 08:00:24;;;;;;;14.23;9.30;;;;;;;1.36;100.00;99779.03;5042077;28;20041;-73
2024/01/23 08:02:50;;;;;;;12.10;8.20;;;;;;;1.53;100.00;99806.50;5040148;28;20047;-70
2024/01/23 08:05:15;;;;;;;22.03;10.67;;;;;;;1.45;100.00;99794.03;5045403;28;20059;-70
2024/01/23 08:07:41;;;;;;;15.10;8.40;;;;;;;1.45;100.00;99770.41;5048037;28;20063;-70
2024/01/23 08:10:09;;;;;;;12.53;8.97;;;;;;;1.53;100.00;99799.47;5052751;28;20121;-73
2024/01/23 08:12:35;;;;;;;17.93;9.60;;;;;;;1.59;100.00;99805.97;5052360;28;20282;-72
2024/01/23 08:15:00;;;;;;;12.83;8.70;;;;;;;1.50;100.00;99801.50;5046364;28;20288;-74
2024/01/23 08:17:31;;;;;;;17.50;9.27;;;;;;;1.61;100.00;99808.47;5052897;28;20057;-71
2024/01/23 08:19:57;;;;;;;12.30;8.13;;;;;;;1.53;100.00;99798.63;5046332;28;20122;-71
2024/01/23 08:22:22;;;;;;;14.13;8.43;;;;;;;1.58;100.00;99795.63;5044196;28;20739;-72
2024/01/23 08:24:48;;;;;;;13.77;8.33;;;;;;;1.30;100.00;99748.06;5048449;28;20055;-72
2024/01/23 08:27:13;;;;;;;15.37;9.07;;;;;;;1.26;100.00;99744.03;5052414;28;20132;-70
2024/01/23 08:29:39;;;;;;;10.60;7.43;;;;;;;1.50;100.00;99776.09;5049128;28;20361;-73
2024/01/23 08:32:05;;;;;;;12.80;7.87;;;;;;;1.63;100.00;99811.81;5046457;28;20041;-69
2024/01/23 08:34:30;;;;;;;14.20;8.60;;;;;;;1.58;100.00;99816.59;5049680;28;20121;-71
2024/01/23 08:36:56;;;;;;;16.13;8.53;;;;;;;1.52;100.00;99804.84;5051995;28;20045;-71
2024/01/23 08:39:49;;;;;;;12.27;8.83;;;;;;;1.61;100.00;99813.72;5050139;28;20039;-73
2024/01/23 08:42:14;;;;;;;10.67;7.00;;;;;;;1.44;100.00;99775.75;5047475;28;20045;-71
2024/01/23 08:44:43;;;;;;;11.37;7.43;;;;;;;1.57;100.00;99786.06;5050002;28;20366;-72
2024/01/23 08:47:08;;;;;;;9.65;6.72;;;;;;;1.54;100.00;99777.50;5052231;28;20045;-68
2024/01/23 08:49:43;;;;;;;15.67;7.60;;;;;;;1.31;100.00;99757.59;5049171;28;20518;-69
2024/01/23 08:52:08;;;;;;;12.27;6.60;;;;;;;1.65;100.00;99809.88;5077275;28;20492;-69
2024/01/23 08:54:36;;;;;;;11.60;6.27;;;;;;;1.41;100.00;99771.59;5034329;28;20280;-68
2024/01/23 08:57:02;;;;;;;11.50;6.85;;;;;;;1.78;100.00;99823.66;5049011;28;20136;-71
2024/01/23 08:59:28;;;;;;;12.27;6.60;;;;;;;1.74;100.00;99817.00;5045740;28;20116;-69
2024/01/23 09:01:54;;;;;;;11.80;7.47;;;;;;;1.73;100.00;99807.44;5049947;28;20037;-69
2024/01/23 09:04:20;;;;;;;10.40;6.40;;;;;;;1.90;100.00;99822.59;5049101;28;20286;-70
2024/01/23 09:06:46;;;;;;;10.10;7.47;;;;;;;1.92;100.00;99819.84;5053358;28;20040;-69
2024/01/23 09:09:11;;;;;;;9.17;6.80;;;;;;;1.94;100.00;99821.38;5049335;28;20037;-72
2024/01/23 09:11:37;;;;;;;13.40;6.57;;;;;;;1.89;100.00;99810.44;5055227;28;20079;-70
2024/01/23 09:14:03;;;;;;;10.67;6.67;;;;;;;1.94;100.00;99820.53;5058115;28;20044;-69
2024/01/23 09:16:28;;;;;;;11.50;5.93;;;;;;;1.98;100.00;99829.81;5057759;28;20057;-68
2024/01/23 09:18:56;;;;;;;10.93;6.23;;;;;;;2.11;100.00;99833.09;5046128;28;20065;-67
2024/01/23 09:21:23;;;;;;;13.25;6.72;;;;;;;2.15;100.00;99826.59;5056338;28;20072;-68
2024/01/23 09:23:49;;;;;;;9.70;6.30;;;;;;;2.11;100.00;99825.19;5064326;28;20033;-73
2024/01/23 09:26:14;;;;;;;11.43;6.37;;;;;;;2.15;100.00;99840.56;5072934;28;20279;-69
2024/01/23 09:28:40;;;;;;;12.13;6.93;;;;;;;2.01;100.00;99830.38;5064247;28;20048;-69
2024/01/23 09:31:05;;;;;;;16.43;6.77;;;;;;;1.97;100.00;99823.72;5061014;28;20040;-68
2024/01/23 09:33:30;;;;;;;12.50;5.90;;;;;;;2.04;100.00;99838.03;5062798;28;20774;-68
2024/01/23 09:35:56;;;;;;;11.60;5.70;;;;;;;2.05;100.00;99838.88;5063744;28;20125;-66
2024/01/23 09:38:22;;;;;;;9.47;5.67;;;;;;;2.08;100.00;99836.81;5067530;28;20037;-67
2024/01/23 09:40:50;;;;;;;10.17;6.57;;;;;;;2.13;100.00;99836.41;5063632;28;20024;-72
2024/01/23 09:43:20;;;;;;;12.95;6.57;;;;;;;2.08;100.00;99844.69;5049177;28;20039;-69
2024/01/23 09:45:47;;;;;;;12.20;6.10;;;;;;;1.76;100.00;99796.69;5051551;28;20029;-71
2024/01/23 09:48:16;;;;;;;10.03;5.83;;;;;;;2.04;100.00;99845.06;5052087;28;20298;-68
2024/01/23 09:50:45;;;;;;;12.60;5.57;;;;;;;1.99;100.00;99829.69;5051682;28;20336;-69
2024/01/23 09:53:10;;;;;;;;;;;;;;;2.15;100.00;99845.81;5055159;28;20090;-70
2024/01/23 09:55:37;;;;;;;6.60;5.23;;;;;;;2.09;100.00;99843.72;5048516;28;20007;-69
2024/01/23 09:58:03;;;;;;;8.07;4.73;;;;;;;2.14;100.00;99861.72;5051540;28;20039;-70
2024/01/23 10:00:35;;;;;;;11.93;4.90;;;;;;;2.12;100.00;99861.00;5043888;28;20707;-72
2024/01/23 10:03:01;;;;;;;;;;;;;;;2.24;100.00;99864.38;5048440;28;20286;-70
2024/01/23 10:05:26;;;;;;;8.27;5.13;;;;;;;2.26;100.00;99863.28;5049065;28;19917;-72
2024/01/23 10:07:54;;;;;;;9.23;5.20;;;;;;;2.03;100.00;99840.78;5049186;28;20504;-73
2024/01/23 10:10:19;;;;;;;10.80;5.20;;;;;;;2.17;100.00;99859.66;5043128;28;20036;-66
2024/01/23 10:12:49;;;;;;;13.15;5.35;;;;;;;2.10;100.00;99848.00;5048154;28;20418;-69
2024/01/23 10:15:18;;;;;;;8.93;5.10;;;;;;;2.18;100.00;99860.47;5049354;28;20041;-68
2024/01/23 10:17:49;;;;;;;;;;;;;;;2.25;100.00;99877.38;5048628;28;20387;-68
2024/01/23 10:20:16;;;;;;;9.63;5.07;;;;;;;2.06;100.00;99846.59;5044756;28;19928;-71
2024/01/23 10:22:45;;;;;;;8.70;5.30;;;;;;;2.20;100.00;99860.34;5046613;28;20806;-74
2024/01/23 10:25:13;;;;;;;7.13;5.07;;;;;;;2.16;100.00;99854.53;5035766;28;20299;-71
2024/01/23 10:27:39;;;;;;;11.43;5.82;;;;;;;2.12;100.00;99846.06;5039112;28;20417;-67
2024/01/23 10:30:06;;;;;;;12.60;4.80;;;;;;;2.13;100.00;99847.75;5029954;28;20048;-68
2024/01/23 10:32:32;;;;;;;6.77;4.20;;;;;;;2.17;100.00;99850.94;5051035;28;20094;-70
2024/01/23 10:34:57;;;;;;;7.17;4.30;;;;;;;2.15;100.00;99845.81;5043523;28;20821;-69
2024/01/23 10:37:23;;;;;;;8.50;4.17;;;;;;;2.27;100.00;99870.19;5036193;28;20048;-68
2024/01/23 10:39:51;;;;;;;6.73;5.13;;;;;;;2.24;100.00;99867.00;5047262;28;20037;-70
2024/01/23 10:42:20;;;;;;;5.10;4.20;;;;;;;2.16;100.00;99850.09;5048200;28;20033;-68
2024/01/23 10:44:47;;;;;;;;;;;;;;;2.39;100.00;99882.28;5048987;28;20291;-68
2024/01/23 10:47:14;;;;;;;6.27;4.40;;;;;;;2.15;100.00;99845.81;5055983;28;19924;-66
2024/01/23 10:49:42;;;;;;;9.87;4.90;;;;;;;2.06;100.00;99843.97;5047921;28;20325;-67
2024/01/23 10:52:09;;;;;;;12.55;5.22;;;;;;;2.20;100.00;99876.09;5050190;28;20283;-69
2024/01/23 10:54:43;;;;;;;10.77;4.23;;;;;;;1.52;100.00;99763.69;5054809;28;20100;-67
2024/01/23 10:57:24;;;;;;;13.17;4.80;;;;;;;2.08;100.00;99860.44;5057249;28;20310;-68
2024/01/23 10:59:53;;;;;;;10.70;4.67;;;;;;;2.36;100.00;99895.69;5056177;28;20377;-71
2024/01/23 11:02:31;;;;;;;13.20;4.93;;;;;;;2.35;100.00;99895.84;5053493;28;20271;-69
2024/01/23 11:05:04;;;;;;;10.93;5.93;;;;;;;2.35;100.00;99908.97;5041881;28;20520;-67
2024/01/23 11:07:29;;;;;;;12.13;5.97;;;;;;;2.31;100.00;99903.13;5054311;28;20287;-71
2024/01/23 11:10:14;;;;;;;11.13;4.87;;;;;;;2.16;100.00;99873.75;5050461;28;20270;-69
2024/01/23 11:12:54;;;;;;;13.97;5.23;;;;;;;2.17;100.00;99872.78;5050177;28;20044;-67
2024/01/23 11:15:21;;;;;;;10.80;4.60;;;;;;;2.24;100.00;99890.66;5071228;28;20280;-69
2024/01/23 11:17:47;;;;;;;12.97;5.53;;;;;;;2.45;100.00;99905.41;5052159;28;20415;-71
2024/01/23 11:20:16;;;;;;;13.93;5.33;;;;;;;2.43;100.00;99909.13;5060331;28;20286;-69
2024/01/23 11:22:45;;;;;;;13.37;4.83;;;;;;;2.42;100.00;99904.84;5019386;28;20277;-70